Time;durP1;ratioP1;P1;durP2;ratioP2;P2;SDS_P1;SDS_P2;PMS_P1;PMS_P2;Temp;Humidity;BMP_temperature;BMP_pressure;BME280_temperature;BME280_humidity;BME280_pressure;Samples;Min_cycle;Max_cycle;Signal;HPM_P1;HPM_P2
2023/09/11 00:00:44;;;;;;;21.65;16.83;;;;;;;16.21;91.52;101573.41;4980630;28;20577;-74
2023/09/11 00:03:09;;;;;;;24.15;19.17;;;;;;;16.19;91.56;101559.34;4899552;28;20040;-78
2023/09/11 00:05:35;;;;;;;29.00;19.15;;;;;;;16.16;91.71;101552.63;4906359;28;20567;-75
2023/09/11 00:08:01;;;;;;;24.73;20.08;;;;;;;16.13;92.05;101547.03;4898519;28;20024;-77
2023/09/11 00:10:27;;;;;;;23.08;17.67;;;;;;;16.11;91.75;101548.09;4900777;28;20040;-75
2023/09/11 00:12:52;;;;;;;;;;;;;;;16.09;91.99;101552.19;4884742;28;20047;-76
2023/09/11 00:15:18;;;;;;;22.45;16.88;;;;;;;16.07;91.62;101549.78;4896273;28;20781;-77
2023/09/11 00:17:44;;;;;;;25.88;17.85;;;;;;;16.04;92.05;101542.22;4910126;28;20505;-75
2023/09/11 00:20:11;;;;;;;21.88;16.55;;;;;;;15.97;92.08;101533.66;4896628;28;20048;-76
2023/09/11 00:22:37;;;;;;;26.25;18.27;;;;;;;15.96;91.86;101537.44;4906293;28;20048;-76
2023/09/11 00:25:02;;;;;;;23.13;18.33;;;;;;;15.95;91.81;101543.94;4897068;28;20055;-75
2023/09/11 00:27:28;;;;;;;23.60;18.38;;;;;;;15.94;92.08;101528.84;4913360;28;20048;-74
2023/09/11 00:29:55;;;;;;;28.02;20.83;;;;;;;15.92;92.55;101528.31;4892210;29;20522;-78
2023/09/11 00:32:20;;;;;;;27.50;19.55;;;;;;;15.89;92.72;101531.59;4891882;28;20068;-78
2023/09/11 00:34:46;;;;;;;28.42;21.95;;;;;;;15.89;92.57;101517.28;4901147;29;20127;-78
2023/09/11 00:37:11;;;;;;;;;;;;;;;15.86;93.16;101521.38;4904757;28;20528;-76
2023/09/11 00:39:37;;;;;;;25.83;17.35;;;;;;;15.83;93.31;101521.91;4912808;29;19919;-75
2023/09/11 00:42:03;;;;;;;29.17;20.02;;;;;;;15.82;93.21;101521.13;4905503;28;20044;-75
2023/09/11 00:44:29;;;;;;;29.63;22.15;;;;;;;15.82;93.06;101514.91;4886564;28;20052;-79
2023/09/11 00:46:56;;;;;;;26.30;19.77;;;;;;;15.83;93.23;101516.53;4889267;28;20040;-79
2023/09/11 00:49:22;;;;;;;27.80;20.13;;;;;;;15.82;93.30;101513.00;4888924;28;20558;-79
2023/09/11 00:51:50;;;;;;;30.92;22.58;;;;;;;15.80;93.09;101514.41;4891378;28;20539;-74
2023/09/11 00:54:18;;;;;;;26.75;18.85;;;;;;;15.79;93.06;101510.09;4899943;28;20506;-76
2023/09/11 00:56:46;;;;;;;28.50;18.88;;;;;;;15.79;93.14;101504.69;4904758;29;20538;-75
2023/09/11 00:59:12;;;;;;;22.48;17.55;;;;;;;15.75;92.87;101499.03;4906803;28;20072;-77
2023/09/11 01:01:41;;;;;;;29.10;20.85;;;;;;;15.74;92.78;101491.25;4909738;28;20024;-78
2023/09/11 01:04:06;;;;;;;25.52;17.83;;;;;;;15.73;92.76;101493.13;4891024;28;20040;-77
2023/09/11 01:06:32;;;;;;;30.52;21.35;;;;;;;15.72;92.71;101488.81;4903142;28;20089;-76
2023/09/11 01:08:57;;;;;;;;;;;;;;;15.72;92.80;101486.13;4892251;28;20071;-78
2023/09/11 01:11:23;;;;;;;23.83;16.38;;;;;;;15.70;93.09;101487.47;4914463;28;19923;-76
2023/09/11 01:13:49;;;;;;;26.50;19.42;;;;;;;15.68;93.14;101490.47;4899023;28;20072;-75
2023/09/11 01:16:30;;;;;;;29.30;21.63;;;;;;;15.67;93.32;101477.28;4903563;28;20136;-74
2023/09/11 01:19:41;;;;;;;26.63;20.60;;;;;;;15.65;93.13;101482.97;4893770;28;20040;-74
2023/09/11 01:22:19;;;;;;;31.10;19.85;;;;;;;15.64;93.18;101483.22;4903971;28;20044;-78
2023/09/11 01:25:18;;;;;;;24.67;18.15;;;;;;;15.62;93.05;101483.50;4887712;28;20032;-77
2023/09/11 01:27:56;;;;;;;25.02;17.75;;;;;;;15.57;92.93;101470.84;4873246;28;20567;-77
2023/09/11 01:30:24;;;;;;;28.60;19.70;;;;;;;15.55;92.86;101467.63;4890573;28;20739;-75
2023/09/11 01:32:50;;;;;;;33.25;25.13;;;;;;;15.53;94.17;101464.41;4918921;29;20040;-78
2023/09/11 01:35:16;;;;;;;32.88;24.27;;;;;;;15.53;94.52;101463.59;4891075;28;20044;-79
2023/09/11 01:37:41;;;;;;;28.38;19.10;;;;;;;15.53;94.40;101458.22;4894164;28;20331;-76
2023/09/11 01:40:07;;;;;;;;;;;;;;;15.55;95.08;101451.41;4920642;28;20788;-76
2023/09/11 01:42:42;;;;;;;28.40;20.80;;;;;;;15.52;95.12;101457.41;4903823;28;19929;-78
2023/09/11 01:45:13;;;;;;;37.58;24.20;;;;;;;15.53;95.38;101452.81;4915959;29;20047;-79
2023/09/11 01:47:39;;;;;;;35.65;25.23;;;;;;;15.53;95.64;101450.91;4886913;28;20032;-74
2023/09/11 01:50:07;;;;;;;29.60;20.60;;;;;;;15.53;95.42;101458.22;4904259;28;20044;-78
2023/09/11 01:52:34;;;;;;;34.25;23.92;;;;;;;15.52;95.48;101457.41;4896199;28;20541;-78
2023/09/11 01:55:02;;;;;;;33.75;23.75;;;;;;;15.51;95.64;101460.38;4900018;29;20035;-80
2023/09/11 01:57:28;;;;;;;39.60;25.63;;;;;;;15.51;96.10;101472.00;4895831;28;20078;-76
2023/09/11 01:59:53;;;;;;;37.35;25.85;;;;;;;15.51;96.06;101469.28;4870195;28;20128;-75
2023/09/11 02:02:19;;;;;;;31.63;22.85;;;;;;;15.52;96.01;101467.41;4903001;28;20127;-75
2023/09/11 02:04:45;;;;;;;;;;;;;;;15.51;95.62;101466.59;4902696;28;20122;-77
2023/09/11 02:07:11;;;;;;;31.05;20.83;;;;;;;15.49;95.58;101467.94;4916871;28;20407;-77
2023/09/11 02:09:37;;;;;;;31.00;22.40;;;;;;;15.49;95.10;101476.06;4901983;28;20036;-76
2023/09/11 02:12:04;;;;;;;;;;;;;;;15.48;95.37;101469.03;4884670;28;20051;-79
2023/09/11 02:14:33;;;;;;;33.55;23.63;;;;;;;15.45;95.40;101472.34;4901945;28;19923;-78
2023/09/11 02:17:02;;;;;;;;;;;;;;;15.46;95.59;101472.03;4921872;28;20035;-77
2023/09/11 02:19:29;;;;;;;32.45;21.05;;;;;;;15.46;95.65;101463.94;4915871;28;20658;-74
2023/09/11 02:21:55;;;;;;;27.25;19.35;;;;;;;15.46;95.48;101463.94;4898973;28;20075;-77
2023/09/11 02:24:21;;;;;;;;;;;;;;;15.48;95.36;101469.84;4902190;28;20076;-75
2023/09/11 02:26:47;;;;;;;30.27;20.73;;;;;;;15.44;95.01;101463.41;4903376;28;19924;-78
2023/09/11 02:29:13;;;;;;;33.67;23.35;;;;;;;15.44;95.08;101465.28;4901951;28;20044;-76
2023/09/11 02:31:38;;;;;;;;;;;;;;;15.42;95.11;101457.50;4891222;28;20388;-76
2023/09/11 02:34:05;;;;;;;26.48;18.35;;;;;;;15.40;94.93;101464.28;4917971;29;19923;-75
2023/09/11 02:36:30;;;;;;;;;;;;;;;15.40;94.96;101473.16;4898332;28;20040;-77
2023/09/11 02:38:56;;;;;;;32.47;22.27;;;;;;;15.37;95.12;101462.94;4873356;28;19919;-75
2023/09/11 02:41:21;;;;;;;;;;;;;;;15.38;95.79;101451.06;4918019;28;20039;-78
2023/09/11 02:43:47;;;;;;;33.75;20.55;;;;;;;15.37;96.14;101454.81;4918977;29;20273;-78
2023/09/11 02:46:12;;;;;;;;;;;;;;;15.40;96.55;101461.56;4886969;28;20040;-78
2023/09/11 02:48:45;;;;;;;36.78;24.55;;;;;;;15.36;97.07;101469.41;4906105;28;19962;-74
2023/09/11 02:51:12;;;;;;;35.35;21.50;;;;;;;15.38;97.11;101466.47;4909298;28;20520;-77
2023/09/11 02:53:38;;;;;;;41.35;26.02;;;;;;;15.41;97.27;101461.28;4898104;28;20048;-75
2023/09/11 02:56:04;;;;;;;;;;;;;;;15.46;98.07;101450.44;4906321;28;20098;-79
2023/09/11 02:58:30;;;;;;;32.00;22.35;;;;;;;15.41;97.53;101447.78;4915940;28;20308;-74
2023/09/11 03:00:59;;;;;;;;;;;;;;;15.47;98.01;101452.03;4888445;29;20039;-75
2023/09/11 03:03:25;;;;;;;34.00;22.50;;;;;;;15.45;98.12;101445.34;4897236;29;19919;-75
2023/09/11 03:05:57;;;;;;;;;;;;;;;15.49;98.20;101443.66;4890161;28;20040;-76
2023/09/11 03:08:24;;;;;;;38.17;23.90;;;;;;;15.47;98.26;101438.56;4930679;28;19954;-75
2023/09/11 03:10:50;;;;;;;34.55;24.85;;;;;;;15.49;98.04;101439.06;4876076;28;20036;-75
2023/09/11 03:13:16;;;;;;;;;;;;;;;15.52;98.07;101443.91;4886285;28;20044;-74
2023/09/11 03:15:42;;;;;;;33.58;24.25;;;;;;;15.48;97.95;101436.66;4981227;28;19926;-75
2023/09/11 03:18:09;;;;;;;31.02;21.73;;;;;;;15.46;97.48;101442.34;4883219;28;20044;-77
2023/09/11 03:20:35;;;;;;;32.75;22.00;;;;;;;15.48;97.56;101436.66;4893647;28;20043;-76
2023/09/11 03:23:01;;;;;;;;;;;;;;;15.48;97.16;101440.16;4889302;28;20048;-77
2023/09/11 03:25:28;;;;;;;28.85;19.77;;;;;;;15.46;97.49;101436.94;4917966;28;19977;-76
2023/09/11 03:27:54;;;;;;;28.65;21.55;;;;;;;15.45;97.11;101432.66;4906126;28;20039;-74
2023/09/11 03:30:20;;;;;;;32.40;23.33;;;;;;;15.43;96.75;101431.31;4904255;28;20123;-76
2023/09/11 03:32:46;;;;;;;;;;;;;;;15.43;97.21;101425.91;4901787;28;20170;-78
2023/09/11 03:35:12;;;;;;;29.55;22.70;;;;;;;15.39;97.53;101425.69;4903988;29;19923;-76
2023/09/11 03:37:37;;;;;;;32.33;22.60;;;;;;;15.39;96.98;101428.38;4883911;28;20498;-75
2023/09/11 03:40:13;;;;;;;;;;;;;;;15.41;97.34;101426.19;4904855;28;20044;-76
2023/09/11 03:42:39;;;;;;;28.05;20.17;;;;;;;15.38;97.20;101421.38;4973533;28;19915;-76
2023/09/11 03:45:07;;;;;;;29.15;20.33;;;;;;;15.36;97.05;101414.63;4905174;29;20063;-75
2023/09/11 03:47:34;;;;;;;27.83;20.92;;;;;;;15.33;96.53;101421.41;4897609;28;20044;-77
2023/09/11 03:50:02;;;;;;;31.50;22.95;;;;;;;15.31;96.18;101415.50;4889521;28;20032;-76
2023/09/11 03:52:28;;;;;;;31.40;21.73;;;;;;;15.28;96.72;101414.16;4899800;28;20036;-76
2023/09/11 03:54:55;;;;;;;31.40;22.08;;;;;;;15.28;96.40;101408.78;4895304;29;20094;-75
2023/09/11 03:57:20;;;;;;;;;;;;;;;15.26;96.58;101410.97;4905640;28;20047;-73
2023/09/11 03:59:46;;;;;;;31.48;22.65;;;;;;;15.25;97.50;101406.66;4901516;29;19969;-76
2023/09/11 04:02:12;;;;;;;34.70;25.02;;;;;;;15.26;97.60;101412.84;4899270;28;20040;-72
2023/09/11 04:04:38;;;;;;;30.35;22.52;;;;;;;15.26;97.60;101407.47;4868262;28;20132;-77
2023/09/11 04:07:03;;;;;;;33.20;21.98;;;;;;;15.25;97.15;101403.16;4901838;28;20127;-76
2023/09/11 04:09:30;;;;;;;;;;;;;;;15.26;96.80;101405.56;4902285;28;20059;-72
2023/09/11 04:11:56;;;;;;;31.42;21.42;;;;;;;15.25;97.58;101403.16;4917557;28;19919;-73
2023/09/11 04:14:22;;;;;;;30.15;21.27;;;;;;;15.24;97.33;101412.31;4902839;28;20032;-74
2023/09/11 04:16:48;;;;;;;;;;;;;;;15.24;97.31;101402.34;4890992;28;20889;-74
2023/09/11 04:19:13;;;;;;;34.45;23.00;;;;;;;15.22;97.68;101398.31;4885918;28;20396;-73
2023/09/11 04:21:40;;;;;;;37.80;24.83;;;;;;;15.23;97.89;101400.72;4916497;28;20059;-73
2023/09/11 04:24:12;;;;;;;;;;;;;;;15.24;97.86;101399.66;4913276;28;20442;-73
2023/09/11 04:26:45;;;;;;;36.65;24.13;;;;;;;15.21;97.66;101399.41;4900807;28;20286;-74
2023/09/11 04:29:11;;;;;;;34.45;23.63;;;;;;;15.23;97.96;101394.53;4902233;28;20055;-74
2023/09/11 04:31:37;;;;;;;;;;;;;;;15.24;97.94;101396.13;4883729;28;20086;-75
2023/09/11 04:34:03;;;;;;;34.60;23.80;;;;;;;15.18;97.82;101391.91;4889797;28;19961;-74
2023/09/11 04:36:28;;;;;;;;;;;;;;;15.16;98.14;101397.56;4983389;28;20032;-74
2023/09/11 04:38:54;;;;;;;38.67;25.55;;;;;;;15.11;98.51;101396.81;4917887;28;19927;-75
2023/09/11 04:41:20;;;;;;;;;;;;;;;15.12;98.26;101399.22;4886980;28;20038;-74
2023/09/11 04:43:46;;;;;;;25.55;18.95;;;;;;;15.10;98.18;101400.56;4901205;28;20411;-73
2023/09/11 04:46:12;;;;;;;;;;;;;;;15.11;98.14;101394.13;4968005;28;20040;-73
2023/09/11 04:48:38;;;;;;;28.23;21.88;;;;;;;15.09;97.92;101393.56;4924151;28;19931;-73
2023/09/11 04:51:05;;;;;;;25.80;19.98;;;;;;;15.07;97.82;101393.06;4897396;28;20032;-75
2023/09/11 04:53:30;;;;;;;;;;;;;;;15.08;97.81;101397.38;4903730;28;20043;-73
2023/09/11 04:55:56;;;;;;;25.75;19.02;;;;;;;15.05;97.61;101392.56;4913812;28;19997;-73
2023/09/11 04:58:22;;;;;;;27.98;21.38;;;;;;;15.05;97.35;101392.56;4901295;28;20068;-77
2023/09/11 05:00:48;;;;;;;27.48;20.70;;;;;;;15.03;96.96;101396.31;4909073;28;20074;-76
2023/09/11 05:03:14;;;;;;;;;;;;;;;15.05;97.12;101393.34;4905450;28;20040;-74
2023/09/11 05:05:41;;;;;;;26.00;18.77;;;;;;;15.03;97.25;101400.91;4899169;28;19923;-75
2023/09/11 05:08:07;;;;;;;28.48;20.88;;;;;;;15.03;97.21;101400.91;4889674;28;20123;-74
2023/09/11 05:10:33;;;;;;;;;;;;;;;15.03;97.51;101398.22;4902743;28;20206;-73
2023/09/11 05:12:59;;;;;;;27.60;19.33;;;;;;;15.02;97.65;101396.59;4908336;28;19923;-73
2023/09/11 05:15:24;;;;;;;26.70;19.92;;;;;;;15.03;97.64;101401.72;4896900;28;20036;-76
2023/09/11 05:17:51;;;;;;;;;;;;;;;15.06;97.71;101399.56;4886573;28;20115;-75
2023/09/11 05:20:16;;;;;;;26.92;20.48;;;;;;;15.01;97.83;101393.09;4914792;28;20008;-70
2023/09/11 05:22:42;;;;;;;;;;;;;;;14.99;97.77;101400.69;4906553;28;20502;-73
2023/09/11 05:25:08;;;;;;;25.17;18.42;;;;;;;14.97;97.97;101394.78;4886847;28;19926;-76
2023/09/11 05:27:34;;;;;;;25.55;20.33;;;;;;;14.99;97.71;101395.28;4892461;28;20071;-74
2023/09/11 05:30:00;;;;;;;;;;;;;;;15.01;97.71;101389.59;4888822;28;20115;-74
2023/09/11 05:32:25;;;;;;;24.67;18.05;;;;;;;14.98;97.38;101398.28;4900596;28;19919;-74
2023/09/11 05:34:54;;;;;;;;;;;;;;;14.98;96.67;101393.69;4883987;28;20445;-74
2023/09/11 05:37:20;;;;;;;25.30;19.45;;;;;;;14.94;96.53;101392.63;4876507;28;19923;-74
2023/09/11 05:39:46;;;;;;;25.95;19.90;;;;;;;14.94;96.33;101398.03;4902951;28;20513;-74
2023/09/11 05:42:12;;;;;;;;;;;;;;;14.95;96.45;101398.81;4907280;28;20047;-74
2023/09/11 05:44:38;;;;;;;24.13;17.98;;;;;;;14.92;96.47;101392.13;4905031;28;19919;-73
2023/09/11 05:47:06;;;;;;;28.00;20.02;;;;;;;14.91;96.91;101392.41;4905454;28;20040;-73
2023/09/11 05:49:31;;;;;;;27.83;20.52;;;;;;;14.93;96.63;101393.72;4888551;28;20405;-74
2023/09/11 05:51:57;;;;;;;;;;;;;;;14.98;96.88;101393.69;4908162;28;20501;-74
2023/09/11 05:54:23;;;;;;;26.48;18.65;;;;;;;14.97;97.08;101399.34;4896411;28;19919;-73
2023/09/11 05:56:49;;;;;;;;;;;;;;;15.01;97.26;101395.81;4914140;28;20660;-74
2023/09/11 05:59:18;;;;;;;27.02;19.77;;;;;;;15.03;97.27;101390.91;4903713;28;19923;-72
2023/09/11 06:01:45;;;;;;;26.08;19.50;;;;;;;15.07;97.11;101393.88;4891312;28;20039;-73
2023/09/11 06:04:11;;;;;;;27.33;20.50;;;;;;;15.13;96.89;101400.81;4904822;28;20043;-71
2023/09/11 06:06:37;;;;;;;;;;;;;;;15.18;97.18;101397.28;4892288;28;20036;-73
2023/09/11 06:09:06;;;;;;;32.10;23.13;;;;;;;15.21;97.50;101394.00;4901649;29;20794;-73
2023/09/11 06:11:31;;;;;;;27.38;21.20;;;;;;;15.29;97.08;101404.19;4902990;28;20062;-74
2023/09/11 06:13:57;;;;;;;29.33;21.70;;;;;;;15.33;96.87;101399.03;4905002;28;20477;-73
2023/09/11 06:16:23;;;;;;;;;;;;;;;15.39;96.92;101398.69;4893029;28;20036;-72
2023/09/11 06:18:49;;;;;;;24.30;19.30;;;;;;;15.43;96.82;101388.13;4887594;28;19923;-73
2023/09/11 06:21:15;;;;;;;27.70;21.45;;;;;;;15.51;96.50;101388.31;4907032;28;20036;-72
2023/09/11 06:23:41;;;;;;;;;;;;;;;15.54;96.13;101393.13;4867828;28;20071;-72
2023/09/11 06:26:07;;;;;;;25.67;19.60;;;;;;;15.57;95.85;101389.84;4905569;28;19923;-72
2023/09/11 06:28:32;;;;;;;;;;;;;;;15.63;95.56;101387.91;4906447;28;20040;-72
2023/09/11 06:30:59;;;;;;;24.38;17.92;;;;;;;15.64;95.03;101388.72;4899338;28;19919;-73
2023/09/11 06:33:27;;;;;;;24.77;19.00;;;;;;;15.66;94.99;101387.38;4905923;29;20040;-73
2023/09/11 06:35:56;;;;;;;26.17;20.45;;;;;;;15.73;95.09;101379.72;4903598;28;20036;-72
2023/09/11 06:38:22;;;;;;;23.55;18.05;;;;;;;15.78;95.13;101378.84;4918339;29;20036;-73
2023/09/11 06:40:47;;;;;;;;;;;;;;;15.78;94.41;101385.06;4886665;28;20083;-76
2023/09/11 06:43:14;;;;;;;22.70;16.63;;;;;;;15.80;94.01;101392.88;4905847;28;19965;-72
2023/09/11 06:45:41;;;;;;;21.70;18.77;;;;;;;15.85;94.24;101384.72;4896370;28;20646;-73
2023/09/11 06:48:10;;;;;;;23.52;19.52;;;;;;;15.92;94.08;101387.88;4907224;28;20143;-73
2023/09/11 06:50:38;;;;;;;23.20;18.42;;;;;;;15.99;94.12;101388.31;4967717;28;20039;-73
2023/09/11 06:53:07;;;;;;;22.40;19.02;;;;;;;15.99;93.66;101384.81;4904040;28;20053;-73
2023/09/11 06:55:33;;;;;;;21.08;16.92;;;;;;;16.04;93.88;101385.53;4896777;28;20387;-73
2023/09/11 06:57:59;;;;;;;;;;;;;;;16.10;94.01;101387.06;4923865;28;20040;-73
2023/09/11 07:00:25;;;;;;;21.65;17.70;;;;;;;16.14;93.92;101373.78;4967121;28;19919;-73
2023/09/11 07:02:50;;;;;;;26.33;20.48;;;;;;;16.23;93.78;101373.94;4920370;28;20039;-74
2023/09/11 07:05:23;;;;;;;24.50;19.33;;;;;;;16.23;93.09;101371.22;4902237;28;20048;-74
2023/09/11 07:07:48;;;;;;;25.30;20.08;;;;;;;16.26;92.86;101370.66;4872002;28;20048;-74
2023/09/11 07:10:15;;;;;;;;;;;;;;;16.35;92.97;101366.19;4886598;28;20114;-73
2023/09/11 07:12:44;;;;;;;28.30;22.35;;;;;;;16.40;92.96;101370.72;4900756;28;19919;-73
2023/09/11 07:15:10;;;;;;;24.85;19.30;;;;;;;16.42;92.93;101366.63;4902793;28;20593;-72
2023/09/11 07:17:36;;;;;;;26.10;19.23;;;;;;;16.46;92.69;101369.53;4883323;28;20048;-74
2023/09/11 07:20:05;;;;;;;25.27;18.85;;;;;;;16.53;92.58;101367.28;4905149;28;20036;-72
2023/09/11 07:22:32;;;;;;;27.23;21.70;;;;;;;16.61;92.61;101363.91;4900486;28;20036;-72
2023/09/11 07:24:58;;;;;;;24.40;18.98;;;;;;;16.68;92.41;101374.34;4891757;28;20091;-72
2023/09/11 07:27:33;;;;;;;23.33;18.25;;;;;;;16.76;91.81;101365.59;4906813;28;20040;-75
2023/09/11 07:29:59;;;;;;;22.33;18.73;;;;;;;16.83;90.88;101366.00;4903696;28;20466;-75
2023/09/11 07:32:25;;;;;;;24.42;18.65;;;;;;;16.87;90.92;101361.63;4887831;28;20052;-72
2023/09/11 07:34:51;;;;;;;25.38;20.10;;;;;;;16.96;90.83;101370.66;4899609;28;20040;-74
2023/09/11 07:37:16;;;;;;;24.30;19.52;;;;;;;17.04;90.49;101367.25;4883093;28;20045;-74
2023/09/11 07:39:42;;;;;;;24.75;18.70;;;;;;;17.12;90.63;101363.88;4900552;28;20535;-73
2023/09/11 07:42:07;;;;;;;23.33;17.13;;;;;;;17.19;89.85;101361.56;4899712;28;20040;-74
2023/09/11 07:44:33;;;;;;;23.13;18.33;;;;;;;17.25;89.81;101364.19;4902089;28;20060;-73
2023/09/11 07:46:59;;;;;;;24.40;19.17;;;;;;;17.27;89.07;101359.25;4898480;28;20029;-72
2023/09/11 07:49:24;;;;;;;23.38;19.40;;;;;;;17.34;89.29;101365.91;4885406;28;20122;-73
2023/09/11 07:51:50;;;;;;;24.50;18.83;;;;;;;17.44;89.70;101362.19;4891037;28;20659;-74
2023/09/11 07:54:16;;;;;;;24.98;20.05;;;;;;;17.55;88.83;101360.09;4906838;28;20036;-73
2023/09/11 07:56:43;;;;;;;22.30;18.17;;;;;;;17.62;88.72;101363.22;4896788;29;20422;-75
2023/09/11 07:59:09;;;;;;;23.40;19.23;;;;;;;17.66;88.82;101354.16;4900879;28;20048;-75
2023/09/11 08:01:35;;;;;;;24.25;18.30;;;;;;;17.76;88.57;101349.69;4904880;28;20050;-75
2023/09/11 08:04:00;;;;;;;24.98;19.70;;;;;;;17.84;88.56;101348.97;4902934;28;20071;-75
2023/09/11 08:06:27;;;;;;;22.52;18.50;;;;;;;17.91;88.63;101349.34;4901991;28;20036;-74
2023/09/11 08:08:55;;;;;;;23.25;18.88;;;;;;;18.06;88.54;101348.22;4906717;28;20040;-75
2023/09/11 08:11:27;;;;;;;22.75;18.25;;;;;;;18.12;88.17;101345.09;4905973;28;20789;-75
2023/09/11 08:13:53;;;;;;;21.83;18.65;;;;;;;18.24;87.28;101337.22;4898311;28;20060;-73
2023/09/11 08:16:19;;;;;;;20.65;16.83;;;;;;;18.35;87.88;101331.56;4893798;28;20144;-76
2023/09/11 08:18:44;;;;;;;20.02;16.60;;;;;;;18.46;87.25;101330.22;4911575;28;20119;-76
2023/09/11 08:21:12;;;;;;;19.42;15.70;;;;;;;18.59;87.36;101332.06;4919146;28;20047;-76
2023/09/11 08:23:41;;;;;;;21.70;16.60;;;;;;;18.68;86.60;101330.22;4963855;28;20047;-72
2023/09/11 08:26:08;;;;;;;22.58;15.88;;;;;;;18.79;86.49;101328.06;4911464;28;20091;-76
2023/09/11 08:28:33;;;;;;;17.65;15.75;;;;;;;18.94;86.64;101335.00;4898930;28;20032;-75
2023/09/11 08:30:59;;;;;;;19.02;16.38;;;;;;;19.06;86.04;101330.59;4897943;28;20051;-75
2023/09/11 08:33:25;;;;;;;19.77;17.13;;;;;;;19.15;85.40;101337.97;4915128;29;20036;-75
2023/09/11 08:35:51;;;;;;;17.75;15.38;;;;;;;19.21;85.41;101336.72;4901047;28;20505;-77
2023/09/11 08:38:18;;;;;;;17.40;15.25;;;;;;;19.35;85.52;101332.00;4869105;28;20040;-73
2023/09/11 08:40:44;;;;;;;18.83;15.90;;;;;;;19.45;85.03;101328.22;4906208;28;20036;-77
2023/09/11 08:43:11;;;;;;;17.05;13.98;;;;;;;19.57;85.01;101331.09;4916893;28;20428;-75
2023/09/11 08:45:38;;;;;;;18.25;15.38;;;;;;;19.67;84.67;101338.19;4919687;28;20055;-77
2023/09/11 08:48:09;;;;;;;16.23;13.43;;;;;;;19.74;84.20;101325.75;4912084;28;20371;-76
2023/09/11 08:50:53;;;;;;;17.52;14.95;;;;;;;19.89;83.82;101322.56;4904697;28;20059;-76
2023/09/11 08:53:22;;;;;;;16.30;13.82;;;;;;;20.01;83.71;101329.28;4870457;28;20036;-78
2023/09/11 08:55:49;;;;;;;17.42;15.10;;;;;;;20.15;83.09;101327.22;4906015;29;20509;-79
2023/09/11 08:58:19;;;;;;;15.93;14.23;;;;;;;20.27;83.29;101316.50;4876010;28;20064;-78
2023/09/11 09:00:45;;;;;;;19.08;17.02;;;;;;;20.33;81.90;101326.09;4895146;28;20089;-79
2023/09/11 09:03:12;;;;;;;17.77;14.60;;;;;;;20.36;81.67;101314.56;4909386;28;20040;-78
2023/09/11 09:05:39;;;;;;;15.45;13.63;;;;;;;20.50;81.09;101314.44;4905588;28;20040;-74
2023/09/11 09:08:07;;;;;;;18.70;15.27;;;;;;;20.55;80.83;101310.75;4903763;29;20037;-76
2023/09/11 09:10:33;;;;;;;16.25;14.40;;;;;;;20.65;81.07;101304.94;4897966;28;20051;-75
2023/09/11 09:13:00;;;;;;;14.65;12.05;;;;;;;20.76;80.62;101289.88;4892879;28;20402;-77
2023/09/11 09:15:28;;;;;;;15.60;13.77;;;;;;;20.81;80.14;101292.44;4906747;28;20942;-77
2023/09/11 09:17:54;;;;;;;16.02;13.35;;;;;;;20.93;80.27;101294.44;4904049;28;20552;-77
2023/09/11 09:20:21;;;;;;;14.85;12.82;;;;;;;20.97;78.47;101296.22;4904733;28;20438;-78
2023/09/11 09:22:52;;;;;;;16.17;13.88;;;;;;;21.05;78.52;101294.56;4910225;28;20036;-78
2023/09/11 09:25:18;;;;;;;14.45;13.02;;;;;;;21.14;78.60;101292.63;4958014;28;20159;-79
2023/09/11 09:27:43;;;;;;;15.63;11.45;;;;;;;21.26;78.12;101289.19;4909483;28;20147;-77
2023/09/11 09:30:30;;;;;;;16.50;11.52;;;;;;;21.41;77.83;101291.41;4915266;29;20433;-76
2023/09/11 09:32:57;;;;;;;14.90;12.60;;;;;;;21.58;77.16;101287.75;4921791;28;20032;-80
2023/09/11 09:35:26;;;;;;;12.13;10.27;;;;;;;21.69;77.12;101274.56;4890780;28;20477;-77
2023/09/11 09:37:56;;;;;;;13.00;11.13;;;;;;;21.82;77.16;101281.66;4878510;28;20036;-77
2023/09/11 09:40:36;;;;;;;12.68;11.35;;;;;;;21.86;77.35;101279.84;4905845;28;20047;-78
2023/09/11 09:43:06;;;;;;;13.13;10.95;;;;;;;21.93;77.35;101271.94;4904798;28;20091;-77
2023/09/11 09:45:35;;;;;;;13.55;11.35;;;;;;;22.04;76.73;101277.78;4894477;28;20190;-78
2023/09/11 09:48:14;;;;;;;11.80;10.60;;;;;;;22.13;76.18;101275.81;4904695;28;20040;-79
2023/09/11 09:50:57;;;;;;;12.68;10.40;;;;;;;22.22;75.55;101270.31;4901361;28;20071;-78
2023/09/11 09:53:25;;;;;;;13.60;11.00;;;;;;;22.29;76.03;101273.28;4889471;28;20076;-78
2023/09/11 09:55:51;;;;;;;14.75;12.00;;;;;;;22.37;76.06;101263.41;4919004;28;20059;-79
2023/09/11 09:58:20;;;;;;;10.60;9.50;;;;;;;22.45;75.76;101259.78;4906699;28;20044;-79
2023/09/11 10:00:47;;;;;;;11.30;8.80;;;;;;;22.57;76.04;101268.81;4886120;28;20047;-73
2023/09/11 10:03:13;;;;;;;13.15;11.27;;;;;;;22.67;75.29;101258.56;4907758;28;20036;-77
2023/09/11 10:05:40;;;;;;;11.90;9.65;;;;;;;22.73;75.13;101259.94;4900714;28;20130;-78
2023/09/11 10:08:06;;;;;;;11.88;9.73;;;;;;;22.90;74.67;101259.78;4916418;28;20520;-78
2023/09/11 10:10:34;;;;;;;11.85;9.43;;;;;;;23.00;73.62;101259.31;4889539;28;20541;-77
2023/09/11 10:13:00;;;;;;;12.35;9.32;;;;;;;23.12;73.15;101256.59;4907723;28;20119;-76
2023/09/11 10:15:26;;;;;;;10.40;9.40;;;;;;;23.26;73.52;101261.72;4889200;28;20190;-77
2023/09/11 10:17:56;;;;;;;10.68;9.20;;;;;;;23.38;73.20;101252.72;4918600;28;20078;-76
2023/09/11 10:20:23;;;;;;;11.52;9.55;;;;;;;23.52;72.88;101247.69;4887489;28;21184;-78
2023/09/11 10:22:53;;;;;;;13.13;9.68;;;;;;;23.62;71.95;101244.47;4903716;28;20033;-80
2023/09/11 10:25:20;;;;;;;11.40;9.75;;;;;;;23.74;72.32;101245.59;4915672;28;20485;-76
2023/09/11 10:27:49;;;;;;;13.20;10.13;;;;;;;23.87;70.70;101239.75;4904598;28;20044;-77
2023/09/11 10:30:21;;;;;;;11.15;8.32;;;;;;;23.98;69.93;101248.25;4913988;29;20056;-78
2023/09/11 10:32:57;;;;;;;12.77;9.15;;;;;;;24.09;70.67;101241.13;4866397;28;20139;-78
2023/09/11 10:35:25;;;;;;;12.77;9.70;;;;;;;24.27;70.17;101238.88;4885448;28;20054;-78
2023/09/11 10:37:56;;;;;;;11.30;9.05;;;;;;;24.36;68.95;101230.53;4886952;28;20086;-80
2023/09/11 10:40:24;;;;;;;11.40;8.70;;;;;;;24.50;69.74;101225.41;4905878;28;20515;-77
2023/09/11 10:42:49;;;;;;;10.30;8.55;;;;;;;24.65;69.07;101219.16;4883724;29;20040;-77
2023/09/11 10:45:29;;;;;;;20.25;9.57;;;;;;;24.74;67.73;101216.25;4917653;28;20035;-77
2023/09/11 10:47:55;;;;;;;10.48;9.18;;;;;;;24.84;68.06;101218.44;4901260;29;20047;-76
2023/09/11 10:50:32;;;;;;;9.70;8.70;;;;;;;24.99;67.71;101211.34;4919722;28;20033;-78
2023/09/11 10:52:57;;;;;;;10.48;8.32;;;;;;;25.11;66.59;101215.97;4886839;28;20032;-73
2023/09/11 10:55:24;;;;;;;12.65;8.95;;;;;;;25.16;64.82;101213.75;4888277;28;20070;-77
2023/09/11 10:57:56;;;;;;;9.75;8.73;;;;;;;25.28;66.74;101210.09;4968670;28;20036;-77
2023/09/11 11:00:22;;;;;;;10.23;8.48;;;;;;;25.38;64.20;101214.22;4902201;28;20040;-80
2023/09/11 11:02:50;;;;;;;9.90;8.25;;;;;;;25.46;63.98;101208.50;4891954;28;20038;-78
2023/09/11 11:05:16;;;;;;;10.70;8.23;;;;;;;25.51;63.21;101201.97;4919212;28;20922;-75
2023/09/11 11:07:42;;;;;;;11.45;8.13;;;;;;;25.58;63.57;101202.91;4915524;28;20040;-76
2023/09/11 11:10:12;;;;;;;12.82;7.75;;;;;;;25.69;64.27;101203.13;4902355;28;20660;-75
2023/09/11 11:12:42;;;;;;;13.90;9.63;;;;;;;25.76;63.30;101200.56;4909171;28;20060;-77
2023/09/11 11:15:25;;;;;;;11.98;8.23;;;;;;;25.91;64.51;101195.34;4902837;28;20044;-77
2023/09/11 11:18:08;;;;;;;14.18;8.13;;;;;;;26.06;62.58;101183.47;4902308;28;20059;-75
2023/09/11 11:20:35;;;;;;;12.40;7.63;;;;;;;26.21;64.98;101185.31;4897487;28;20435;-77
2023/09/11 11:23:09;;;;;;;14.05;8.38;;;;;;;26.27;61.54;101186.59;4904830;28;20032;-78